sensor_id;sensor_type;location;lat;lon;timestamp;P1;durP1;ratioP1;P2;durP2;ratioP2
11865;SDS011;5992;52.744;6.898;2022-12-18T00:02:11;40.73;;;19.40;;
11865;SDS011;5992;52.744;6.898;2022-12-18T00:05:35;41.17;;;17.90;;
11865;SDS011;5992;52.744;6.898;2022-12-18T00:08:35;39.20;;;18.07;;
11865;SDS011;5992;52.744;6.898;2022-12-18T00:12:00;38.10;;;17.40;;
11865;SDS011;5992;52.744;6.898;2022-12-18T00:15:16;42.80;;;18.17;;
11865;SDS011;5992;52.744;6.898;2022-12-18T00:18:28;43.20;;;19.00;;
11865;SDS011;5992;52.744;6.898;2022-12-18T00:21:29;38.53;;;17.97;;
11865;SDS011;5992;52.744;6.898;2022-12-18T00:24:52;40.40;;;17.97;;
11865;SDS011;5992;52.744;6.898;2022-12-18T00:27:57;41.30;;;18.15;;
11865;SDS011;5992;52.744;6.898;2022-12-18T00:31:22;33.65;;;16.85;;
11865;SDS011;5992;52.744;6.898;2022-12-18T00:34:33;35.30;;;18.00;;
11865;SDS011;5992;52.744;6.898;2022-12-18T00:37:45;35.80;;;18.17;;
11865;SDS011;5992;52.744;6.898;2022-12-18T00:40:45;31.93;;;16.20;;
11865;SDS011;5992;52.744;6.898;2022-12-18T00:43:58;36.20;;;17.00;;
11865;SDS011;5992;52.744;6.898;2022-12-18T00:47:09;39.07;;;17.47;;
11865;SDS011;5992;52.744;6.898;2022-12-18T00:50:23;37.80;;;17.00;;
11865;SDS011;5992;52.744;6.898;2022-12-18T00:53:34;37.30;;;16.80;;
11865;SDS011;5992;52.744;6.898;2022-12-18T00:56:46;36.00;;;17.83;;
11865;SDS011;5992;52.744;6.898;2022-12-18T00:59:48;41.87;;;18.27;;
11865;SDS011;5992;52.744;6.898;2022-12-18T01:03:12;35.60;;;16.60;;
11865;SDS011;5992;52.744;6.898;2022-12-18T01:06:27;38.60;;;16.70;;
11865;SDS011;5992;52.744;6.898;2022-12-18T01:09:52;43.50;;;19.03;;
11865;SDS011;5992;52.744;6.898;2022-12-18T01:12:52;33.60;;;15.75;;
11865;SDS011;5992;52.744;6.898;2022-12-18T01:16:07;39.95;;;17.30;;
11865;SDS011;5992;52.744;6.898;2022-12-18T01:19:19;41.80;;;18.70;;
11865;SDS011;5992;52.744;6.898;2022-12-18T01:22:32;40.23;;;17.47;;
11865;SDS011;5992;52.744;6.898;2022-12-18T01:25:32;32.53;;;15.57;;
11865;SDS011;5992;52.744;6.898;2022-12-18T01:28:56;42.23;;;19.07;;
11865;SDS011;5992;52.744;6.898;2022-12-18T01:32:10;39.30;;;17.30;;
11865;SDS011;5992;52.744;6.898;2022-12-18T01:35:39;39.80;;;18.47;;
11865;SDS011;5992;52.744;6.898;2022-12-18T01:38:52;38.27;;;17.60;;
11865;SDS011;5992;52.744;6.898;2022-12-18T01:42:16;36.20;;;17.10;;
11865;SDS011;5992;52.744;6.898;2022-12-18T01:45:28;41.60;;;17.40;;
11865;SDS011;5992;52.744;6.898;2022-12-18T01:48:53;36.65;;;17.20;;
11865;SDS011;5992;52.744;6.898;2022-12-18T01:52:06;34.20;;;17.40;;
11865;SDS011;5992;52.744;6.898;2022-12-18T01:55:19;41.00;;;17.17;;
11865;SDS011;5992;52.744;6.898;2022-12-18T01:58:32;36.87;;;17.13;;
11865;SDS011;5992;52.744;6.898;2022-12-18T02:01:57;41.07;;;18.00;;
11865;SDS011;5992;52.744;6.898;2022-12-18T02:05:25;36.10;;;16.63;;
11865;SDS011;5992;52.744;6.898;2022-12-18T02:08:57;39.10;;;18.20;;
11865;SDS011;5992;52.744;6.898;2022-12-18T02:12:23;34.83;;;15.53;;
11865;SDS011;5992;52.744;6.898;2022-12-18T02:15:48;37.40;;;16.47;;
11865;SDS011;5992;52.744;6.898;2022-12-18T02:19:14;35.50;;;16.40;;
11865;SDS011;5992;52.744;6.898;2022-12-18T02:22:43;33.57;;;15.30;;
11865;SDS011;5992;52.744;6.898;2022-12-18T02:26:12;34.87;;;14.17;;
11865;SDS011;5992;52.744;6.898;2022-12-18T02:29:38;27.63;;;14.27;;
11865;SDS011;5992;52.744;6.898;2022-12-18T02:33:05;31.40;;;14.33;;
11865;SDS011;5992;52.744;6.898;2022-12-18T02:36:28;26.97;;;14.17;;
11865;SDS011;5992;52.744;6.898;2022-12-18T02:39:53;31.23;;;14.10;;
11865;SDS011;5992;52.744;6.898;2022-12-18T02:43:19;29.07;;;14.47;;
11865;SDS011;5992;52.744;6.898;2022-12-18T02:46:44;26.60;;;13.80;;
11865;SDS011;5992;52.744;6.898;2022-12-18T02:50:10;29.85;;;14.20;;
11865;SDS011;5992;52.744;6.898;2022-12-18T02:53:33;29.63;;;15.03;;
11865;SDS011;5992;52.744;6.898;2022-12-18T02:56:56;29.00;;;13.00;;
11865;SDS011;5992;52.744;6.898;2022-12-18T03:00:23;25.80;;;13.07;;
11865;SDS011;5992;52.744;6.898;2022-12-18T03:03:47;25.23;;;12.43;;
11865;SDS011;5992;52.744;6.898;2022-12-18T03:07:13;27.87;;;14.57;;
11865;SDS011;5992;52.744;6.898;2022-12-18T03:10:38;30.60;;;12.33;;
11865;SDS011;5992;52.744;6.898;2022-12-18T03:14:01;28.40;;;13.30;;
11865;SDS011;5992;52.744;6.898;2022-12-18T03:17:26;25.53;;;11.90;;
11865;SDS011;5992;52.744;6.898;2022-12-18T03:20:52;25.17;;;11.77;;
11865;SDS011;5992;52.744;6.898;2022-12-18T03:24:16;27.17;;;12.83;;
11865;SDS011;5992;52.744;6.898;2022-12-18T03:27:42;27.83;;;13.73;;
11865;SDS011;5992;52.744;6.898;2022-12-18T03:31:09;27.20;;;13.73;;
11865;SDS011;5992;52.744;6.898;2022-12-18T03:34:35;26.60;;;12.80;;
11865;SDS011;5992;52.744;6.898;2022-12-18T03:37:59;27.63;;;13.17;;
11865;SDS011;5992;52.744;6.898;2022-12-18T03:41:25;28.80;;;13.10;;
11865;SDS011;5992;52.744;6.898;2022-12-18T03:44:49;24.47;;;12.27;;
11865;SDS011;5992;52.744;6.898;2022-12-18T03:48:13;25.93;;;12.80;;
11865;SDS011;5992;52.744;6.898;2022-12-18T03:51:42;22.70;;;11.35;;
11865;SDS011;5992;52.744;6.898;2022-12-18T03:55:06;24.23;;;12.73;;
11865;SDS011;5992;52.744;6.898;2022-12-18T03:58:30;26.07;;;12.27;;
11865;SDS011;5992;52.744;6.898;2022-12-18T04:01:54;18.87;;;10.80;;
11865;SDS011;5992;52.744;6.898;2022-12-18T04:05:19;25.10;;;11.53;;
11865;SDS011;5992;52.744;6.898;2022-12-18T04:08:44;22.57;;;11.60;;
11865;SDS011;5992;52.744;6.898;2022-12-18T04:12:08;20.83;;;11.87;;
11865;SDS011;5992;52.744;6.898;2022-12-18T04:15:32;22.33;;;12.20;;
11865;SDS011;5992;52.744;6.898;2022-12-18T04:18:58;24.10;;;11.77;;
11865;SDS011;5992;52.744;6.898;2022-12-18T04:22:10;20.17;;;11.00;;
11865;SDS011;5992;52.744;6.898;2022-12-18T04:25:35;21.00;;;11.27;;
11865;SDS011;5992;52.744;6.898;2022-12-18T04:28:59;19.37;;;11.37;;
11865;SDS011;5992;52.744;6.898;2022-12-18T04:32:11;23.93;;;11.00;;
11865;SDS011;5992;52.744;6.898;2022-12-18T04:35:23;18.57;;;11.13;;
11865;SDS011;5992;52.744;6.898;2022-12-18T04:38:36;23.20;;;10.73;;
11865;SDS011;5992;52.744;6.898;2022-12-18T04:41:49;20.03;;;10.37;;
11865;SDS011;5992;52.744;6.898;2022-12-18T04:45:15;19.17;;;10.27;;
11865;SDS011;5992;52.744;6.898;2022-12-18T04:48:15;25.00;;;11.10;;
11865;SDS011;5992;52.744;6.898;2022-12-18T04:51:28;19.40;;;10.83;;
11865;SDS011;5992;52.744;6.898;2022-12-18T04:54:28;21.67;;;10.43;;
11865;SDS011;5992;52.744;6.898;2022-12-18T04:57:41;20.53;;;10.97;;
11865;SDS011;5992;52.744;6.898;2022-12-18T05:00:54;19.27;;;10.27;;
11865;SDS011;5992;52.744;6.898;2022-12-18T05:04:06;20.03;;;10.40;;
11865;SDS011;5992;52.744;6.898;2022-12-18T05:07:22;18.47;;;10.10;;
11865;SDS011;5992;52.744;6.898;2022-12-18T05:10:34;18.65;;;10.15;;
11865;SDS011;5992;52.744;6.898;2022-12-18T05:13:36;22.23;;;9.30;;
11865;SDS011;5992;52.744;6.898;2022-12-18T05:17:00;18.20;;;9.50;;
11865;SDS011;5992;52.744;6.898;2022-12-18T05:20:03;17.27;;;9.53;;
11865;SDS011;5992;52.744;6.898;2022-12-18T05:23:17;15.70;;;9.70;;
11865;SDS011;5992;52.744;6.898;2022-12-18T05:26:29;18.23;;;10.00;;
11865;SDS011;5992;52.744;6.898;2022-12-18T05:29:45;17.87;;;9.03;;
11865;SDS011;5992;52.744;6.898;2022-12-18T05:32:58;17.80;;;9.17;;
11865;SDS011;5992;52.744;6.898;2022-12-18T05:36:10;16.55;;;9.00;;
11865;SDS011;5992;52.744;6.898;2022-12-18T05:39:22;15.63;;;9.40;;
11865;SDS011;5992;52.744;6.898;2022-12-18T05:42:37;14.13;;;9.30;;
11865;SDS011;5992;52.744;6.898;2022-12-18T05:45:39;22.23;;;10.47;;
11865;SDS011;5992;52.744;6.898;2022-12-18T05:49:03;16.07;;;9.13;;
11865;SDS011;5992;52.744;6.898;2022-12-18T05:52:03;16.53;;;9.07;;
11865;SDS011;5992;52.744;6.898;2022-12-18T05:55:16;15.90;;;9.03;;
11865;SDS011;5992;52.744;6.898;2022-12-18T05:58:19;16.35;;;8.70;;
11865;SDS011;5992;52.744;6.898;2022-12-18T06:01:32;17.47;;;10.23;;
11865;SDS011;5992;52.744;6.898;2022-12-18T06:04:58;17.43;;;9.07;;
11865;SDS011;5992;52.744;6.898;2022-12-18T06:08:13;17.10;;;8.97;;
11865;SDS011;5992;52.744;6.898;2022-12-18T06:11:25;14.57;;;8.33;;
11865;SDS011;5992;52.744;6.898;2022-12-18T06:14:37;17.37;;;9.03;;
11865;SDS011;5992;52.744;6.898;2022-12-18T06:17:51;18.03;;;9.77;;
11865;SDS011;5992;52.744;6.898;2022-12-18T06:21:03;16.50;;;9.13;;
11865;SDS011;5992;52.744;6.898;2022-12-18T06:24:27;15.63;;;9.13;;
11865;SDS011;5992;52.744;6.898;2022-12-18T06:27:27;18.07;;;9.40;;
11865;SDS011;5992;52.744;6.898;2022-12-18T06:30:39;16.43;;;9.30;;
11865;SDS011;5992;52.744;6.898;2022-12-18T06:33:53;17.90;;;8.77;;
11865;SDS011;5992;52.744;6.898;2022-12-18T06:37:20;16.87;;;9.60;;
11865;SDS011;5992;52.744;6.898;2022-12-18T06:40:44;14.90;;;8.90;;
11865;SDS011;5992;52.744;6.898;2022-12-18T06:43:59;17.83;;;9.47;;
11865;SDS011;5992;52.744;6.898;2022-12-18T06:46:59;16.60;;;8.80;;
11865;SDS011;5992;52.744;6.898;2022-12-18T06:50:13;13.83;;;8.73;;
11865;SDS011;5992;52.744;6.898;2022-12-18T06:53:13;17.70;;;8.33;;
11865;SDS011;5992;52.744;6.898;2022-12-18T06:56:25;19.37;;;8.97;;
11865;SDS011;5992;52.744;6.898;2022-12-18T06:59:25;18.93;;;8.83;;
11865;SDS011;5992;52.744;6.898;2022-12-18T07:02:37;15.87;;;8.83;;
11865;SDS011;5992;52.744;6.898;2022-12-18T07:05:40;15.27;;;8.67;;
11865;SDS011;5992;52.744;6.898;2022-12-18T07:09:07;12.80;;;8.57;;
11865;SDS011;5992;52.744;6.898;2022-12-18T07:12:23;16.17;;;8.87;;
11865;SDS011;5992;52.744;6.898;2022-12-18T07:15:35;14.63;;;8.47;;
11865;SDS011;5992;52.744;6.898;2022-12-18T07:18:47;14.83;;;8.00;;
11865;SDS011;5992;52.744;6.898;2022-12-18T07:22:16;13.87;;;8.60;;
11865;SDS011;5992;52.744;6.898;2022-12-18T07:25:27;13.77;;;8.27;;
11865;SDS011;5992;52.744;6.898;2022-12-18T07:28:40;14.50;;;7.83;;
11865;SDS011;5992;52.744;6.898;2022-12-18T07:31:54;13.90;;;8.20;;
11865;SDS011;5992;52.744;6.898;2022-12-18T07:35:06;14.87;;;7.90;;
11865;SDS011;5992;52.744;6.898;2022-12-18T07:38:11;14.23;;;8.50;;
11865;SDS011;5992;52.744;6.898;2022-12-18T07:41:35;10.80;;;7.10;;
11865;SDS011;5992;52.744;6.898;2022-12-18T07:44:47;16.00;;;8.07;;
11865;SDS011;5992;52.744;6.898;2022-12-18T07:47:59;13.10;;;7.27;;
11865;SDS011;5992;52.744;6.898;2022-12-18T07:50:59;12.13;;;7.70;;
11865;SDS011;5992;52.744;6.898;2022-12-18T07:54:27;10.90;;;6.97;;
11865;SDS011;5992;52.744;6.898;2022-12-18T07:57:39;12.43;;;7.33;;
11865;SDS011;5992;52.744;6.898;2022-12-18T08:01:01;12.13;;;7.40;;
11865;SDS011;5992;52.744;6.898;2022-12-18T08:04:25;9.93;;;6.90;;
11865;SDS011;5992;52.744;6.898;2022-12-18T08:07:25;16.37;;;7.20;;
11865;SDS011;5992;52.744;6.898;2022-12-18T08:10:39;14.53;;;7.10;;
11865;SDS011;5992;52.744;6.898;2022-12-18T08:13:52;8.90;;;5.70;;
11865;SDS011;5992;52.744;6.898;2022-12-18T08:17:16;11.53;;;6.20;;
11865;SDS011;5992;52.744;6.898;2022-12-18T08:20:17;10.07;;;6.77;;
11865;SDS011;5992;52.744;6.898;2022-12-18T08:23:28;11.23;;;7.73;;
11865;SDS011;5992;52.744;6.898;2022-12-18T08:26:30;11.93;;;6.87;;
11865;SDS011;5992;52.744;6.898;2022-12-18T08:29:54;9.53;;;6.37;;
11865;SDS011;5992;52.744;6.898;2022-12-18T08:32:54;11.00;;;6.17;;
11865;SDS011;5992;52.744;6.898;2022-12-18T08:36:08;10.93;;;6.40;;
11865;SDS011;5992;52.744;6.898;2022-12-18T08:39:19;11.00;;;6.43;;
11865;SDS011;5992;52.744;6.898;2022-12-18T08:42:32;10.27;;;5.57;;
11865;SDS011;5992;52.744;6.898;2022-12-18T08:46:05;7.90;;;5.10;;
11865;SDS011;5992;52.744;6.898;2022-12-18T08:49:17;6.37;;;4.90;;
11865;SDS011;5992;52.744;6.898;2022-12-18T08:52:17;8.00;;;4.97;;
11865;SDS011;5992;52.744;6.898;2022-12-18T08:55:29;7.17;;;5.23;;
11865;SDS011;5992;52.744;6.898;2022-12-18T08:58:30;9.57;;;4.93;;
11865;SDS011;5992;52.744;6.898;2022-12-18T09:01:55;7.97;;;4.70;;
11865;SDS011;5992;52.744;6.898;2022-12-18T09:04:55;10.20;;;5.30;;
11865;SDS011;5992;52.744;6.898;2022-12-18T09:08:14;9.03;;;5.57;;
11865;SDS011;5992;52.744;6.898;2022-12-18T09:11:19;8.57;;;5.43;;
11865;SDS011;5992;52.744;6.898;2022-12-18T09:14:44;4.97;;;3.63;;
11865;SDS011;5992;52.744;6.898;2022-12-18T09:17:57;7.27;;;5.23;;
11865;SDS011;5992;52.744;6.898;2022-12-18T09:21:09;6.67;;;4.40;;
11865;SDS011;5992;52.744;6.898;2022-12-18T09:24:22;9.23;;;5.10;;
11865;SDS011;5992;52.744;6.898;2022-12-18T09:27:34;6.13;;;3.97;;
11865;SDS011;5992;52.744;6.898;2022-12-18T09:30:50;7.67;;;4.33;;
11865;SDS011;5992;52.744;6.898;2022-12-18T09:34:15;7.90;;;4.20;;
11865;SDS011;5992;52.744;6.898;2022-12-18T09:37:15;8.90;;;5.30;;
11865;SDS011;5992;52.744;6.898;2022-12-18T09:40:28;7.30;;;3.93;;
11865;SDS011;5992;52.744;6.898;2022-12-18T09:43:41;8.63;;;4.30;;
11865;SDS011;5992;52.744;6.898;2022-12-18T09:47:05;6.50;;;4.27;;
11865;SDS011;5992;52.744;6.898;2022-12-18T09:50:21;5.00;;;3.87;;
11865;SDS011;5992;52.744;6.898;2022-12-18T09:53:44;8.03;;;4.20;;
11865;SDS011;5992;52.744;6.898;2022-12-18T09:56:59;5.00;;;3.80;;
11865;SDS011;5992;52.744;6.898;2022-12-18T10:00:27;8.43;;;4.10;;
11865;SDS011;5992;52.744;6.898;2022-12-18T10:03:41;6.47;;;4.40;;
11865;SDS011;5992;52.744;6.898;2022-12-18T10:06:55;5.30;;;3.97;;
11865;SDS011;5992;52.744;6.898;2022-12-18T10:10:21;4.97;;;4.10;;
11865;SDS011;5992;52.744;6.898;2022-12-18T10:13:31;6.53;;;4.20;;
11865;SDS011;5992;52.744;6.898;2022-12-18T10:16:57;4.57;;;3.73;;
11865;SDS011;5992;52.744;6.898;2022-12-18T10:20:12;6.37;;;3.87;;
11865;SDS011;5992;52.744;6.898;2022-12-18T10:23:37;3.70;;;3.37;;
11865;SDS011;5992;52.744;6.898;2022-12-18T10:26:49;5.27;;;3.60;;
11865;SDS011;5992;52.744;6.898;2022-12-18T10:30:04;5.80;;;3.77;;
11865;SDS011;5992;52.744;6.898;2022-12-18T10:33:17;4.07;;;3.13;;
11865;SDS011;5992;52.744;6.898;2022-12-18T10:36:41;6.03;;;3.70;;
11865;SDS011;5992;52.744;6.898;2022-12-18T10:40:07;5.80;;;3.60;;
11865;SDS011;5992;52.744;6.898;2022-12-18T10:43:31;3.50;;;3.20;;
11865;SDS011;5992;52.744;6.898;2022-12-18T10:46:43;5.53;;;3.70;;
11865;SDS011;5992;52.744;6.898;2022-12-18T10:53:01;4.33;;;3.30;;
11865;SDS011;5992;52.744;6.898;2022-12-18T10:56:26;6.00;;;3.50;;
11865;SDS011;5992;52.744;6.898;2022-12-18T10:59:38;5.40;;;3.70;;
11865;SDS011;5992;52.744;6.898;2022-12-18T11:03:02;5.47;;;3.70;;
11865;SDS011;5992;52.744;6.898;2022-12-18T11:06:03;8.23;;;3.70;;
11865;SDS011;5992;52.744;6.898;2022-12-18T11:09:30;5.63;;;4.00;;
11865;SDS011;5992;52.744;6.898;2022-12-18T11:12:42;4.93;;;3.47;;
11865;SDS011;5992;52.744;6.898;2022-12-18T11:16:06;4.73;;;3.60;;
11865;SDS011;5992;52.744;6.898;2022-12-18T11:19:24;7.20;;;3.45;;
11865;SDS011;5992;52.744;6.898;2022-12-18T11:22:54;4.50;;;3.77;;
11865;SDS011;5992;52.744;6.898;2022-12-18T11:26:07;6.00;;;3.87;;
11865;SDS011;5992;52.744;6.898;2022-12-18T11:29:34;4.07;;;3.23;;
11865;SDS011;5992;52.744;6.898;2022-12-18T11:32:45;5.20;;;3.70;;
11865;SDS011;5992;52.744;6.898;2022-12-18T11:36:15;4.65;;;3.25;;
11865;SDS011;5992;52.744;6.898;2022-12-18T11:39:31;5.70;;;3.70;;
11865;SDS011;5992;52.744;6.898;2022-12-18T11:42:57;4.30;;;3.50;;
11865;SDS011;5992;52.744;6.898;2022-12-18T11:46:09;4.40;;;3.40;;
11865;SDS011;5992;52.744;6.898;2022-12-18T11:49:33;5.00;;;3.37;;
11865;SDS011;5992;52.744;6.898;2022-12-18T11:52:48;5.10;;;3.37;;
11865;SDS011;5992;52.744;6.898;2022-12-18T11:56:17;5.85;;;3.90;;
11865;SDS011;5992;52.744;6.898;2022-12-18T11:59:34;6.50;;;3.20;;
11865;SDS011;5992;52.744;6.898;2022-12-18T12:02:53;4.13;;;3.13;;
11865;SDS011;5992;52.744;6.898;2022-12-18T12:06:13;6.17;;;3.13;;
11865;SDS011;5992;52.744;6.898;2022-12-18T12:09:26;5.17;;;3.57;;
11865;SDS011;5992;52.744;6.898;2022-12-18T12:12:56;3.97;;;3.33;;
11865;SDS011;5992;52.744;6.898;2022-12-18T12:16:12;5.17;;;3.60;;
11865;SDS011;5992;52.744;6.898;2022-12-18T12:19:48;8.05;;;3.65;;
11865;SDS011;5992;52.744;6.898;2022-12-18T12:23:00;5.27;;;3.60;;
11865;SDS011;5992;52.744;6.898;2022-12-18T12:26:23;7.40;;;4.00;;
11865;SDS011;5992;52.744;6.898;2022-12-18T12:29:41;5.30;;;3.60;;
11865;SDS011;5992;52.744;6.898;2022-12-18T12:33:12;4.07;;;3.03;;
11865;SDS011;5992;52.744;6.898;2022-12-18T12:36:24;4.35;;;3.25;;
11865;SDS011;5992;52.744;6.898;2022-12-18T12:39:47;5.07;;;3.67;;
11865;SDS011;5992;52.744;6.898;2022-12-18T12:42:59;4.83;;;3.53;;
11865;SDS011;5992;52.744;6.898;2022-12-18T12:46:25;5.90;;;4.07;;
11865;SDS011;5992;52.744;6.898;2022-12-18T12:49:42;5.50;;;3.93;;
11865;SDS011;5992;52.744;6.898;2022-12-18T12:53:08;7.07;;;3.50;;
11865;SDS011;5992;52.744;6.898;2022-12-18T12:56:20;8.77;;;4.50;;
11865;SDS011;5992;52.744;6.898;2022-12-18T12:59:46;4.60;;;3.80;;
11865;SDS011;5992;52.744;6.898;2022-12-18T13:02:59;6.23;;;3.83;;
11865;SDS011;5992;52.744;6.898;2022-12-18T13:06:26;6.40;;;4.03;;
11865;SDS011;5992;52.744;6.898;2022-12-18T13:10:12;5.97;;;4.43;;
11865;SDS011;5992;52.744;6.898;2022-12-18T13:13:01;4.30;;;3.53;;
11865;SDS011;5992;52.744;6.898;2022-12-18T13:16:13;7.40;;;4.15;;
11865;SDS011;5992;52.744;6.898;2022-12-18T13:19:39;6.43;;;4.57;;
11865;SDS011;5992;52.744;6.898;2022-12-18T13:22:53;6.10;;;4.13;;
11865;SDS011;5992;52.744;6.898;2022-12-18T13:26:28;4.47;;;3.93;;
11865;SDS011;5992;52.744;6.898;2022-12-18T13:29:40;5.40;;;4.27;;
11865;SDS011;5992;52.744;6.898;2022-12-18T13:36:32;7.40;;;4.00;;
11865;SDS011;5992;52.744;6.898;2022-12-18T13:40:00;6.00;;;4.10;;
11865;SDS011;5992;52.744;6.898;2022-12-18T13:43:21;5.50;;;4.30;;
11865;SDS011;5992;52.744;6.898;2022-12-18T13:46:46;6.30;;;4.03;;
11865;SDS011;5992;52.744;6.898;2022-12-18T13:49:58;6.20;;;4.80;;
11865;SDS011;5992;52.744;6.898;2022-12-18T13:53:23;4.73;;;4.13;;
11865;SDS011;5992;52.744;6.898;2022-12-18T13:56:42;5.45;;;3.90;;
11865;SDS011;5992;52.744;6.898;2022-12-18T14:00:16;5.85;;;4.30;;
11865;SDS011;5992;52.744;6.898;2022-12-18T14:03:37;6.15;;;3.90;;
11865;SDS011;5992;52.744;6.898;2022-12-18T14:06:40;6.13;;;4.20;;
11865;SDS011;5992;52.744;6.898;2022-12-18T14:09:52;7.73;;;4.43;;
11865;SDS011;5992;52.744;6.898;2022-12-18T14:13:05;5.57;;;4.60;;
11865;SDS011;5992;52.744;6.898;2022-12-18T14:16:30;5.60;;;4.45;;
11865;SDS011;5992;52.744;6.898;2022-12-18T14:19:30;8.23;;;4.10;;
11865;SDS011;5992;52.744;6.898;2022-12-18T14:22:54;6.50;;;4.25;;
11865;SDS011;5992;52.744;6.898;2022-12-18T14:29:20;6.30;;;3.97;;
11865;SDS011;5992;52.744;6.898;2022-12-18T14:32:44;6.43;;;4.47;;
11865;SDS011;5992;52.744;6.898;2022-12-18T14:35:56;6.60;;;4.40;;
11865;SDS011;5992;52.744;6.898;2022-12-18T14:39:20;5.85;;;4.00;;
11865;SDS011;5992;52.744;6.898;2022-12-18T14:42:20;5.35;;;4.00;;
11865;SDS011;5992;52.744;6.898;2022-12-18T14:48:57;6.70;;;4.33;;
11865;SDS011;5992;52.744;6.898;2022-12-18T14:52:23;7.27;;;4.53;;
11865;SDS011;5992;52.744;6.898;2022-12-18T14:55:34;5.27;;;4.13;;
11865;SDS011;5992;52.744;6.898;2022-12-18T14:58:58;5.67;;;4.20;;
11865;SDS011;5992;52.744;6.898;2022-12-18T15:02:10;7.70;;;4.33;;
11865;SDS011;5992;52.744;6.898;2022-12-18T15:05:35;5.13;;;4.53;;
11865;SDS011;5992;52.744;6.898;2022-12-18T15:08:50;4.63;;;3.80;;
11865;SDS011;5992;52.744;6.898;2022-12-18T15:12:03;5.57;;;4.30;;
11865;SDS011;5992;52.744;6.898;2022-12-18T15:18:46;6.20;;;4.40;;
11865;SDS011;5992;52.744;6.898;2022-12-18T15:21:59;7.50;;;4.65;;
11865;SDS011;5992;52.744;6.898;2022-12-18T15:25:26;6.00;;;4.53;;
11865;SDS011;5992;52.744;6.898;2022-12-18T15:28:36;6.10;;;4.23;;
11865;SDS011;5992;52.744;6.898;2022-12-18T15:32:01;7.37;;;5.17;;
11865;SDS011;5992;52.744;6.898;2022-12-18T15:35:17;3.93;;;3.53;;
11865;SDS011;5992;52.744;6.898;2022-12-18T15:38:45;6.10;;;4.20;;
11865;SDS011;5992;52.744;6.898;2022-12-18T15:41:55;6.40;;;4.20;;
11865;SDS011;5992;52.744;6.898;2022-12-18T15:45:25;5.93;;;4.23;;
11865;SDS011;5992;52.744;6.898;2022-12-18T15:48:28;7.03;;;4.93;;
11865;SDS011;5992;52.744;6.898;2022-12-18T15:51:52;7.17;;;4.97;;
11865;SDS011;5992;52.744;6.898;2022-12-18T15:55:18;5.00;;;3.55;;
11865;SDS011;5992;52.744;6.898;2022-12-18T15:58:48;7.07;;;4.43;;
11865;SDS011;5992;52.744;6.898;2022-12-18T16:01:48;5.95;;;4.30;;
11865;SDS011;5992;52.744;6.898;2022-12-18T16:05:13;8.33;;;4.87;;
11865;SDS011;5992;52.744;6.898;2022-12-18T16:08:25;7.37;;;4.57;;
11865;SDS011;5992;52.744;6.898;2022-12-18T16:11:41;6.47;;;4.67;;
11865;SDS011;5992;52.744;6.898;2022-12-18T16:14:51;11.30;;;5.10;;
11865;SDS011;5992;52.744;6.898;2022-12-18T16:18:03;5.37;;;4.10;;
11865;SDS011;5992;52.744;6.898;2022-12-18T16:21:03;8.30;;;5.55;;
11865;SDS011;5992;52.744;6.898;2022-12-18T16:24:18;7.85;;;5.00;;
11865;SDS011;5992;52.744;6.898;2022-12-18T16:27:30;7.33;;;4.67;;
11865;SDS011;5992;52.744;6.898;2022-12-18T16:30:55;6.70;;;4.70;;
11865;SDS011;5992;52.744;6.898;2022-12-18T16:34:09;7.40;;;5.10;;
11865;SDS011;5992;52.744;6.898;2022-12-18T16:37:33;6.03;;;4.20;;
11865;SDS011;5992;52.744;6.898;2022-12-18T16:40:45;7.20;;;4.90;;
11865;SDS011;5992;52.744;6.898;2022-12-18T16:44:00;7.27;;;4.53;;
11865;SDS011;5992;52.744;6.898;2022-12-18T16:47:13;6.57;;;4.97;;
11865;SDS011;5992;52.744;6.898;2022-12-18T16:50:37;5.83;;;4.10;;
11865;SDS011;5992;52.744;6.898;2022-12-18T16:53:49;6.53;;;4.10;;
11865;SDS011;5992;52.744;6.898;2022-12-18T16:57:02;4.25;;;3.85;;
11865;SDS011;5992;52.744;6.898;2022-12-18T17:00:19;5.17;;;3.90;;
11865;SDS011;5992;52.744;6.898;2022-12-18T17:03:43;6.25;;;4.80;;
11865;SDS011;5992;52.744;6.898;2022-12-18T17:06:55;4.37;;;3.83;;
11865;SDS011;5992;52.744;6.898;2022-12-18T17:10:07;5.37;;;4.50;;
11865;SDS011;5992;52.744;6.898;2022-12-18T17:13:08;6.43;;;4.37;;
11865;SDS011;5992;52.744;6.898;2022-12-18T17:16:22;5.50;;;4.27;;
11865;SDS011;5992;52.744;6.898;2022-12-18T17:19:34;6.57;;;4.60;;
11865;SDS011;5992;52.744;6.898;2022-12-18T17:22:46;7.60;;;4.40;;
11865;SDS011;5992;52.744;6.898;2022-12-18T17:25:46;8.27;;;5.13;;
11865;SDS011;5992;52.744;6.898;2022-12-18T17:28:59;5.67;;;4.27;;
11865;SDS011;5992;52.744;6.898;2022-12-18T17:32:13;17.10;;;11.30;;
11865;SDS011;5992;52.744;6.898;2022-12-18T17:35:38;12.47;;;8.17;;
11865;SDS011;5992;52.744;6.898;2022-12-18T17:38:38;9.10;;;6.30;;
11865;SDS011;5992;52.744;6.898;2022-12-18T17:41:51;8.90;;;5.80;;
11865;SDS011;5992;52.744;6.898;2022-12-18T17:44:51;7.95;;;5.50;;
11865;SDS011;5992;52.744;6.898;2022-12-18T17:48:05;6.03;;;3.97;;
11865;SDS011;5992;52.744;6.898;2022-12-18T17:51:17;9.33;;;5.80;;
11865;SDS011;5992;52.744;6.898;2022-12-18T17:54:29;7.83;;;5.37;;
11865;SDS011;5992;52.744;6.898;2022-12-18T17:57:41;7.40;;;5.00;;
11865;SDS011;5992;52.744;6.898;2022-12-18T18:00:54;7.00;;;5.20;;
11865;SDS011;5992;52.744;6.898;2022-12-18T18:04:19;7.40;;;5.33;;
11865;SDS011;5992;52.744;6.898;2022-12-18T18:07:31;5.60;;;4.80;;
11865;SDS011;5992;52.744;6.898;2022-12-18T18:10:44;8.43;;;5.53;;
11865;SDS011;5992;52.744;6.898;2022-12-18T18:13:44;7.60;;;4.97;;
11865;SDS011;5992;52.744;6.898;2022-12-18T18:16:58;8.07;;;4.97;;
11865;SDS011;5992;52.744;6.898;2022-12-18T18:20:00;8.00;;;5.15;;
11865;SDS011;5992;52.744;6.898;2022-12-18T18:23:26;6.20;;;4.90;;
11865;SDS011;5992;52.744;6.898;2022-12-18T18:26:38;6.87;;;5.20;;
11865;SDS011;5992;52.744;6.898;2022-12-18T18:30:03;8.10;;;4.47;;
11865;SDS011;5992;52.744;6.898;2022-12-18T18:33:03;6.67;;;4.17;;
11865;SDS011;5992;52.744;6.898;2022-12-18T18:36:17;7.63;;;5.07;;
11865;SDS011;5992;52.744;6.898;2022-12-18T18:39:32;7.25;;;5.10;;
11865;SDS011;5992;52.744;6.898;2022-12-18T18:42:46;7.85;;;4.90;;
11865;SDS011;5992;52.744;6.898;2022-12-18T18:45:58;7.40;;;5.10;;
11865;SDS011;5992;52.744;6.898;2022-12-18T18:49:22;8.30;;;4.87;;
11865;SDS011;5992;52.744;6.898;2022-12-18T18:52:35;7.43;;;4.90;;
11865;SDS011;5992;52.744;6.898;2022-12-18T18:56:00;7.17;;;4.53;;
11865;SDS011;5992;52.744;6.898;2022-12-18T18:59:12;9.65;;;4.50;;
11865;SDS011;5992;52.744;6.898;2022-12-18T19:02:27;8.85;;;4.75;;
11865;SDS011;5992;52.744;6.898;2022-12-18T19:05:29;7.83;;;5.00;;
11865;SDS011;5992;52.744;6.898;2022-12-18T19:08:55;7.33;;;4.77;;
11865;SDS011;5992;52.744;6.898;2022-12-18T19:12:10;4.43;;;3.77;;
11865;SDS011;5992;52.744;6.898;2022-12-18T19:15:28;5.23;;;4.03;;
11865;SDS011;5992;52.744;6.898;2022-12-18T19:18:28;5.20;;;3.85;;
11865;SDS011;5992;52.744;6.898;2022-12-18T19:21:40;5.15;;;4.10;;
11865;SDS011;5992;52.744;6.898;2022-12-18T19:24:42;6.47;;;4.53;;
11865;SDS011;5992;52.744;6.898;2022-12-18T19:28:07;7.97;;;4.67;;
11865;SDS011;5992;52.744;6.898;2022-12-18T19:31:19;6.50;;;4.30;;
11865;SDS011;5992;52.744;6.898;2022-12-18T19:34:31;7.93;;;4.47;;
11865;SDS011;5992;52.744;6.898;2022-12-18T19:37:31;6.15;;;4.20;;
11865;SDS011;5992;52.744;6.898;2022-12-18T19:40:44;5.15;;;4.10;;
11865;SDS011;5992;52.744;6.898;2022-12-18T19:43:57;6.70;;;4.87;;
11865;SDS011;5992;52.744;6.898;2022-12-18T19:47:09;5.70;;;4.20;;
11865;SDS011;5992;52.744;6.898;2022-12-18T19:50:09;6.37;;;4.57;;
11865;SDS011;5992;52.744;6.898;2022-12-18T19:53:33;5.60;;;4.27;;
11865;SDS011;5992;52.744;6.898;2022-12-18T19:56:46;6.17;;;4.67;;
11865;SDS011;5992;52.744;6.898;2022-12-18T20:00:14;5.65;;;4.30;;
11865;SDS011;5992;52.744;6.898;2022-12-18T20:03:27;5.90;;;3.95;;